createdAt,value
2018-12-01T00:00:29.410Z,23.97
2018-12-01T00:02:57.750Z,23.23
2018-12-01T00:05:26.009Z,21.65
2018-12-01T00:07:54.636Z,26.10
2018-12-01T00:10:22.857Z,22.37
2018-12-01T00:12:51.538Z,23.10
2018-12-01T00:15:21.892Z,21.87
2018-12-01T00:17:50.485Z,22.64
2018-12-01T00:20:19.960Z,24.10
2018-12-01T00:22:48.199Z,24.00
2018-12-01T00:25:16.398Z,23.17
2018-12-01T00:27:45.387Z,24.10
2018-12-01T00:30:18.462Z,22.87
2018-12-01T00:32:49.959Z,21.53
2018-12-01T00:35:18.161Z,24.93
2018-12-01T00:37:46.430Z,23.85
2018-12-01T00:40:16.442Z,24.70
2018-12-01T00:42:44.697Z,21.77
2018-12-01T00:45:15.512Z,25.25
2018-12-01T00:47:44.698Z,22.83
2018-12-01T00:50:13.898Z,24.37
2018-12-01T00:52:42.118Z,24.70
2018-12-01T00:55:13.365Z,23.52
2018-12-01T00:57:42.231Z,24.52
2018-12-01T01:00:25.830Z,25.07
2018-12-01T01:02:56.483Z,23.80
2018-12-01T01:05:25.604Z,23.52
2018-12-01T01:07:54.461Z,24.50
2018-12-01T01:10:27.697Z,21.93
2018-12-01T01:12:55.999Z,23.15
2018-12-01T01:15:24.177Z,24.90
2018-12-01T01:17:52.429Z,21.93
2018-12-01T01:20:21.717Z,22.40
2018-12-01T01:22:51.125Z,24.65
2018-12-01T01:25:19.720Z,23.33
2018-12-01T01:27:47.949Z,23.43
2018-12-01T01:30:19.678Z,24.93
2018-12-01T01:32:48.202Z,23.30
2018-12-01T01:35:17.417Z,23.87
2018-12-01T01:37:46.313Z,24.30
2018-12-01T01:40:16.352Z,24.07
2018-12-01T01:42:44.870Z,24.60
2018-12-01T01:45:16.937Z,26.10
2018-12-01T01:47:45.577Z,26.02
2018-12-01T01:50:15.034Z,25.00
2018-12-01T01:52:43.299Z,24.40
2018-12-01T01:55:12.253Z,23.20
2018-12-01T01:57:40.801Z,24.37
2018-12-01T02:00:13.724Z,25.17
2018-12-01T02:07:41.510Z,23.70
2018-12-01T02:10:10.701Z,26.07
2018-12-01T02:12:38.919Z,21.57
2018-12-01T02:15:08.842Z,23.33
2018-12-01T02:17:37.087Z,28.50
2018-12-01T02:20:08.733Z,24.57
2018-12-01T02:22:37.022Z,25.05
2018-12-01T02:25:05.987Z,24.37
2018-12-01T02:27:34.172Z,25.20
2018-12-01T02:30:03.531Z,28.98
2018-12-01T02:32:31.742Z,24.33
2018-12-01T02:35:04.189Z,25.30
2018-12-01T02:37:32.406Z,26.85
2018-12-01T02:40:00.641Z,25.70
2018-12-01T02:42:29.018Z,27.67
2018-12-01T02:45:08.541Z,25.45
2018-12-01T02:47:36.785Z,25.20
2018-12-01T02:50:10.346Z,25.04
2018-12-01T02:52:38.643Z,27.43
2018-12-01T02:55:07.089Z,27.75
2018-12-01T02:57:36.209Z,24.45
2018-12-01T03:00:09.385Z,24.40
2018-12-01T03:02:37.871Z,24.70
2018-12-01T03:05:10.793Z,24.95
2018-12-01T03:07:39.024Z,24.30
2018-12-01T03:10:12.502Z,23.65
2018-12-01T03:12:40.725Z,25.27
2018-12-01T03:15:10.099Z,23.00
2018-12-01T03:17:38.408Z,24.30
2018-12-01T03:20:11.604Z,23.30
2018-12-01T03:22:39.844Z,24.43
2018-12-01T03:25:09.835Z,24.20
2018-12-01T03:27:38.089Z,23.17
2018-12-01T03:30:10.062Z,25.02
2018-12-01T03:32:38.404Z,25.87
2018-12-01T03:35:12.012Z,22.10
2018-12-01T03:37:43.670Z,23.65
2018-12-01T03:40:12.593Z,24.33
2018-12-01T03:42:40.950Z,23.92
2018-12-01T03:45:10.665Z,24.67
2018-12-01T03:47:39.150Z,24.77
2018-12-01T03:50:08.936Z,21.80
2018-12-01T03:52:40.677Z,24.43
2018-12-01T03:55:20.222Z,22.05
2018-12-01T03:57:48.531Z,22.17
2018-12-01T04:00:16.764Z,21.70
2018-12-01T04:02:45.036Z,22.20
2018-12-01T04:05:13.224Z,23.30
2018-12-01T04:07:41.513Z,23.45
2018-12-01T04:10:09.745Z,21.20
2018-12-01T04:12:37.956Z,22.55
2018-12-01T04:15:06.210Z,24.67
2018-12-01T04:17:34.410Z,27.90
2018-12-01T04:20:02.753Z,22.37
2018-12-01T04:22:30.961Z,23.73
2018-12-01T04:24:59.356Z,22.77
2018-12-01T04:27:27.606Z,23.02
2018-12-01T04:29:55.788Z,22.83
2018-12-01T04:32:23.989Z,23.98
2018-12-01T04:34:52.214Z,22.47
2018-12-01T04:37:23.732Z,22.13
2018-12-01T04:39:52.433Z,21.77
2018-12-01T04:42:20.631Z,22.70
2018-12-01T04:44:48.804Z,22.50
2018-12-01T04:47:17.886Z,23.30
2018-12-01T04:49:46.322Z,21.27
2018-12-01T04:52:17.747Z,22.30
2018-12-01T04:54:45.958Z,22.20
2018-12-01T04:57:14.153Z,22.33
2018-12-01T04:59:42.610Z,24.50
2018-12-01T05:02:10.838Z,22.20
2018-12-01T05:04:39.054Z,24.23
2018-12-01T05:07:07.589Z,22.02
2018-12-01T05:09:35.823Z,22.27
2018-12-01T05:12:04.151Z,23.60
2018-12-01T05:14:32.508Z,21.73
2018-12-01T05:17:00.710Z,22.10
2018-12-01T05:19:28.922Z,23.83
2018-12-01T05:21:57.227Z,21.67
2018-12-01T05:24:29.430Z,22.15
2018-12-01T05:26:57.643Z,23.47
2018-12-01T05:29:25.865Z,21.70
2018-12-01T05:31:54.075Z,21.48
2018-12-01T05:34:22.346Z,22.80
2018-12-01T05:36:50.529Z,24.80
2018-12-01T05:39:21.833Z,22.43
2018-12-01T05:41:50.009Z,23.70
2018-12-01T05:44:18.227Z,24.32
2018-12-01T05:46:46.596Z,22.07
2018-12-01T05:49:14.775Z,20.93
2018-12-01T05:51:43.032Z,23.00
2018-12-01T05:54:12.097Z,22.73
2018-12-01T05:56:40.340Z,21.55
2018-12-01T05:59:08.564Z,23.30
2018-12-01T06:01:37.167Z,22.20
2018-12-01T06:04:05.825Z,23.60
2018-12-01T06:06:34.053Z,21.80
2018-12-01T06:09:02.231Z,22.60
2018-12-01T06:11:30.811Z,22.80
2018-12-01T06:13:58.990Z,22.30
2018-12-01T06:16:27.177Z,23.38
2018-12-01T06:18:55.404Z,24.02
2018-12-01T06:21:23.608Z,20.73
2018-12-01T06:23:51.817Z,23.70
2018-12-01T06:26:20.137Z,22.37
2018-12-01T06:28:48.332Z,22.37
2018-12-01T06:31:16.534Z,22.62
2018-12-01T06:33:44.728Z,21.77
2018-12-01T06:36:12.986Z,20.95
2018-12-01T06:38:41.230Z,22.00
2018-12-01T06:41:09.441Z,24.30
2018-12-01T06:43:37.683Z,22.17
2018-12-01T06:46:05.884Z,19.37
2018-12-01T06:48:34.119Z,21.60
2018-12-01T06:51:02.323Z,21.80
2018-12-01T06:53:30.542Z,22.20
2018-12-01T06:55:58.798Z,22.52
2018-12-01T06:58:26.987Z,21.52
2018-12-01T07:00:55.195Z,21.03
2018-12-01T07:03:23.394Z,21.97
2018-12-01T07:05:51.654Z,21.70
2018-12-01T07:08:19.870Z,22.47
2018-12-01T07:10:48.129Z,22.13
2018-12-01T07:13:16.327Z,21.10
2018-12-01T07:15:44.531Z,21.77
2018-12-01T07:18:24.063Z,21.80
2018-12-01T07:20:52.327Z,21.30
2018-12-01T07:23:21.284Z,21.35
2018-12-01T07:25:49.586Z,21.87
2018-12-01T07:28:17.811Z,25.27
2018-12-01T07:30:46.275Z,22.03
2018-12-01T07:33:15.113Z,22.80
2018-12-01T07:35:43.314Z,24.43
2018-12-01T07:38:11.522Z,23.00
2018-12-01T07:40:39.699Z,24.50
2018-12-01T07:43:07.949Z,24.70
2018-12-01T07:45:36.156Z,23.40
2018-12-01T07:48:04.586Z,24.30
2018-12-01T07:50:32.809Z,23.73
2018-12-01T07:53:00.999Z,24.10
2018-12-01T07:55:34.054Z,21.95
2018-12-01T07:58:02.259Z,21.37
2018-12-01T08:00:31.066Z,21.77
2018-12-01T08:02:59.313Z,21.40
2018-12-01T08:05:28.027Z,20.50
2018-12-01T08:07:56.386Z,20.97
2018-12-01T08:10:24.612Z,20.55
2018-12-01T08:12:52.862Z,20.57
2018-12-01T08:15:21.144Z,22.70
2018-12-01T08:17:49.369Z,24.27
2018-12-01T08:20:18.003Z,24.10
2018-12-01T08:22:46.187Z,21.20
2018-12-01T08:25:18.320Z,21.80
2018-12-01T08:27:53.742Z,25.90
2018-12-01T08:30:23.337Z,25.83
2018-12-01T08:32:52.887Z,26.80
2018-12-01T08:35:21.471Z,24.23
2018-12-01T08:37:49.809Z,23.87
2018-12-01T08:40:19.242Z,22.48
2018-12-01T08:42:47.493Z,22.23
2018-12-01T08:45:15.761Z,23.35
2018-12-01T08:47:43.999Z,22.73
2018-12-01T08:50:14.841Z,22.85
2018-12-01T08:52:43.028Z,23.50
2018-12-01T08:55:14.556Z,23.65
2018-12-01T08:57:42.806Z,24.45
2018-12-01T09:00:14.618Z,25.10
2018-12-01T09:02:43.882Z,24.75
2018-12-01T09:05:12.072Z,25.13
2018-12-01T09:07:40.487Z,22.97
2018-12-01T09:10:09.714Z,24.70
2018-12-01T09:12:38.419Z,23.02
2018-12-01T09:15:13.370Z,25.07
2018-12-01T09:17:42.651Z,23.50
2018-12-01T09:20:12.637Z,23.62
2018-12-01T09:22:42.255Z,22.30
2018-12-01T09:25:11.844Z,26.10
2018-12-01T09:27:40.025Z,22.83
2018-12-01T09:30:19.273Z,23.20
2018-12-01T09:32:47.565Z,22.25
2018-12-01T09:35:16.462Z,22.50
2018-12-01T09:37:44.673Z,21.53
2018-12-01T09:40:13.983Z,20.70
2018-12-01T09:42:46.850Z,20.83
2018-12-01T09:45:18.022Z,17.70
2018-12-01T09:47:50.950Z,17.40
2018-12-01T09:50:19.179Z,18.20
2018-12-01T09:52:50.522Z,18.57
2018-12-01T09:55:20.969Z,16.97
2018-12-01T09:57:49.314Z,19.98
2018-12-01T10:00:19.452Z,17.23
2018-12-01T10:02:48.058Z,16.67
2018-12-01T10:05:18.504Z,15.90
2018-12-01T10:07:46.736Z,16.13
2018-12-01T10:10:17.903Z,15.53
2018-12-01T10:12:50.671Z,16.60
2018-12-01T10:15:21.793Z,15.55
2018-12-01T10:17:50.957Z,16.16
2018-12-01T10:20:22.615Z,16.10
2018-12-01T10:22:51.396Z,15.38
2018-12-01T10:25:19.644Z,15.80
2018-12-01T10:27:48.094Z,14.93
2018-12-01T10:30:18.249Z,15.50
2018-12-01T10:32:46.720Z,15.47
2018-12-01T10:35:15.939Z,14.97
2018-12-01T10:37:45.531Z,13.87
2018-12-01T10:40:13.754Z,17.93
2018-12-01T10:42:41.966Z,15.50
2018-12-01T10:45:25.152Z,13.40
2018-12-01T10:47:53.957Z,13.32
2018-12-01T10:50:23.203Z,12.00
2018-12-01T10:52:52.694Z,11.53
2018-12-01T10:55:23.284Z,12.03
2018-12-01T10:57:52.213Z,9.27
2018-12-01T11:00:25.686Z,8.98
2018-12-01T11:02:55.915Z,9.85
2018-12-01T11:05:24.638Z,7.27
2018-12-01T11:07:52.845Z,8.57
2018-12-01T11:10:21.109Z,7.25
2018-12-01T11:12:49.405Z,7.10
2018-12-01T11:15:18.122Z,6.60
2018-12-01T11:17:46.353Z,6.20
2018-12-01T11:20:15.391Z,5.42
2018-12-01T11:22:43.608Z,5.77
2018-12-01T11:25:12.150Z,5.67
2018-12-01T11:27:40.794Z,4.40
2018-12-01T11:30:21.562Z,7.03
2018-12-01T11:32:49.789Z,5.63
2018-12-01T11:35:18.019Z,5.17
2018-12-01T11:37:46.893Z,5.92
2018-12-01T11:40:16.424Z,5.47
2018-12-01T11:42:44.965Z,5.30
2018-12-01T11:45:17.301Z,6.50
2018-12-01T11:47:45.606Z,5.57
2018-12-01T11:50:15.119Z,5.15
2018-12-01T11:52:43.511Z,5.75
2018-12-01T11:55:13.583Z,6.12
2018-12-01T11:57:41.767Z,4.75
2018-12-01T12:00:17.226Z,5.40
2018-12-01T12:02:46.040Z,4.67
2018-12-01T12:05:15.825Z,4.92
2018-12-01T12:07:55.309Z,4.53
2018-12-01T12:10:23.709Z,5.23
2018-12-01T12:12:52.073Z,4.80
2018-12-01T12:15:28.219Z,3.90
2018-12-01T12:18:01.074Z,5.08
2018-12-01T12:20:29.955Z,4.93
2018-12-01T12:22:58.219Z,4.20
2018-12-01T12:25:27.339Z,5.20
2018-12-01T12:27:55.587Z,5.45
2018-12-01T12:30:27.836Z,5.03
2018-12-01T12:32:56.070Z,4.63
2018-12-01T12:35:24.309Z,4.53
2018-12-01T12:37:52.879Z,5.90
2018-12-01T12:40:24.071Z,4.20
2018-12-01T12:42:56.927Z,4.45
2018-12-01T12:45:25.118Z,4.00
2018-12-01T12:47:53.794Z,3.15
2018-12-01T12:50:22.104Z,3.00
2018-12-01T12:52:51.326Z,3.07
2018-12-01T12:55:21.794Z,2.63
2018-12-01T12:57:50.005Z,4.03
2018-12-01T13:00:20.494Z,3.05
2018-12-01T13:02:58.419Z,3.70
2018-12-01T13:05:27.986Z,2.80
2018-12-01T13:07:56.350Z,3.90
2018-12-01T13:10:25.312Z,4.50
2018-12-01T13:12:53.807Z,3.13
2018-12-01T13:15:22.073Z,3.25
2018-12-01T13:17:50.728Z,3.67
2018-12-01T13:20:19.908Z,4.33
2018-12-01T13:22:51.434Z,3.42
2018-12-01T13:25:19.632Z,2.90
2018-12-01T13:27:59.724Z,4.65
2018-12-01T13:30:29.533Z,4.50
2018-12-01T13:32:58.439Z,2.92
2018-12-01T13:35:26.653Z,2.53
2018-12-01T13:37:54.946Z,2.60
2018-12-01T13:40:23.214Z,2.73
2018-12-01T13:42:51.486Z,3.70
2018-12-01T13:45:19.741Z,2.83
2018-12-01T13:47:49.222Z,2.50
2018-12-01T13:50:20.617Z,2.75
2018-12-01T13:52:50.236Z,3.47
2018-12-01T13:55:18.598Z,2.93
2018-12-01T13:57:47.607Z,3.50
2018-12-01T14:00:17.295Z,2.80
2018-12-01T14:02:45.529Z,3.95
2018-12-01T14:05:14.182Z,3.50
2018-12-01T14:07:42.419Z,3.13
2018-12-01T14:10:14.163Z,2.97
2018-12-01T14:12:42.786Z,3.00
2018-12-01T14:15:13.551Z,3.40
2018-12-01T14:17:41.764Z,3.22
2018-12-01T14:20:14.107Z,3.67
2018-12-01T14:22:42.702Z,4.17
2018-12-01T14:25:11.823Z,4.17
2018-12-01T14:27:41.053Z,4.43
2018-12-01T14:30:11.930Z,5.00
2018-12-01T14:32:40.400Z,3.85
2018-12-01T14:35:11.974Z,4.74
2018-12-01T14:37:40.730Z,4.22
2018-12-01T14:40:10.416Z,4.80
2018-12-01T14:42:38.698Z,5.00
2018-12-01T14:45:13.274Z,5.90
2018-12-01T14:47:41.766Z,5.50
2018-12-01T14:50:11.190Z,4.73
2018-12-01T14:52:39.605Z,6.43
2018-12-01T14:55:09.334Z,5.33
2018-12-01T14:57:37.556Z,5.72
2018-12-01T15:00:13.423Z,5.90
2018-12-01T15:02:41.680Z,5.90
2018-12-01T15:05:10.047Z,6.90
2018-12-01T15:07:38.345Z,7.37
2018-12-01T15:10:10.739Z,7.05
2018-12-01T15:12:38.949Z,4.75
2018-12-01T15:15:10.204Z,6.97
2018-12-01T15:17:38.656Z,6.80
2018-12-01T15:20:12.483Z,6.27
2018-12-01T15:22:40.814Z,7.00
2018-12-01T15:25:11.541Z,6.72
2018-12-01T15:27:39.823Z,8.13
2018-12-01T15:30:15.590Z,7.50
2018-12-01T15:32:48.248Z,7.57
2018-12-01T15:35:16.447Z,7.20
2018-12-01T15:37:45.014Z,8.90
2018-12-01T15:40:16.648Z,8.77
2018-12-01T15:42:44.844Z,9.63
2018-12-01T15:45:18.185Z,8.55
2018-12-01T15:47:46.459Z,8.65
2018-12-01T15:50:17.349Z,9.70
2018-12-01T15:52:48.702Z,8.90
2018-12-01T15:55:17.873Z,8.97
2018-12-01T15:57:46.081Z,9.60
2018-12-01T16:00:15.535Z,10.67
2018-12-01T16:02:43.803Z,10.45
2018-12-01T16:05:12.661Z,9.20
2018-12-01T16:07:40.884Z,12.03
2018-12-01T16:10:11.264Z,10.80
2018-12-01T16:12:39.522Z,10.45
2018-12-01T16:15:12.969Z,10.30
2018-12-01T16:17:41.189Z,10.72
2018-12-01T16:20:11.146Z,10.20
2018-12-01T16:22:46.051Z,11.13
2018-12-01T16:30:14.878Z,12.50
2018-12-01T16:32:43.084Z,9.93
2018-12-01T16:35:11.345Z,12.00
2018-12-01T16:37:39.582Z,11.38
2018-12-01T16:41:15.172Z,11.53
2018-12-01T16:43:43.377Z,11.43
2018-12-01T16:46:11.575Z,10.53
2018-12-01T16:48:39.813Z,10.08
2018-12-01T16:51:08.005Z,10.97
2018-12-01T16:53:36.697Z,12.18
2018-12-01T16:56:05.205Z,10.73
2018-12-01T16:58:33.430Z,12.07
2018-12-01T17:01:01.670Z,11.67
2018-12-01T17:03:30.134Z,10.53
2018-12-01T17:05:59.945Z,11.93
2018-12-01T17:08:28.236Z,12.93
2018-12-01T17:10:56.450Z,12.53
2018-12-01T17:13:24.848Z,11.30
2018-12-01T17:15:53.083Z,13.37
2018-12-01T17:18:21.494Z,12.30
2018-12-01T17:20:50.628Z,14.50
2018-12-01T17:23:18.882Z,12.17
2018-12-01T17:25:47.120Z,12.88
2018-12-01T17:28:18.989Z,11.88
2018-12-01T17:30:47.909Z,11.35
2018-12-01T17:33:16.250Z,12.20
2018-12-01T17:35:44.462Z,12.88
2018-12-01T17:38:13.802Z,12.03
2018-12-01T17:40:47.026Z,13.93
2018-12-01T17:43:21.134Z,14.80
2018-12-01T17:45:49.354Z,13.17
2018-12-01T17:48:17.845Z,13.55
2018-12-01T17:50:49.293Z,13.18
2018-12-01T17:53:18.240Z,13.45
2018-12-01T17:55:46.429Z,13.47
2018-12-01T17:58:15.038Z,13.20
2018-12-01T18:00:43.243Z,12.83
2018-12-01T18:03:11.426Z,12.97
2018-12-01T18:05:46.438Z,13.30
2018-12-01T18:08:17.171Z,13.70
2018-12-01T18:10:46.482Z,14.58
2018-12-01T18:13:14.727Z,13.33
2018-12-01T18:15:43.197Z,11.73
2018-12-01T18:18:11.651Z,12.50
2018-12-01T18:20:39.823Z,11.77
2018-12-01T18:23:10.055Z,16.02
2018-12-01T18:25:45.741Z,14.68
2018-12-01T18:28:16.559Z,13.87
2018-12-01T18:30:45.538Z,13.60
2018-12-01T18:33:19.665Z,14.80
2018-12-01T18:35:52.468Z,14.43
2018-12-01T18:38:21.953Z,14.17
2018-12-01T18:40:50.157Z,14.57
2018-12-01T18:43:18.381Z,14.57
2018-12-01T18:45:49.141Z,14.60
2018-12-01T18:48:17.502Z,13.88
2018-12-01T18:50:45.750Z,14.93
2018-12-01T18:53:14.790Z,14.20
2018-12-01T18:55:50.417Z,13.18
2018-12-01T18:58:18.634Z,13.88
2018-12-01T19:00:49.806Z,15.70
2018-12-01T19:03:20.360Z,14.00
2018-12-01T19:05:49.174Z,14.47
2018-12-01T19:08:17.446Z,14.17
2018-12-01T19:10:45.649Z,14.20
2018-12-01T19:13:14.189Z,15.15
2018-12-01T19:15:42.534Z,14.05
2018-12-01T19:18:10.737Z,13.97
2018-12-01T19:20:39.141Z,13.33
2018-12-01T19:23:09.033Z,14.50
2018-12-01T19:25:38.427Z,14.07
2018-12-01T19:28:06.913Z,13.40
2018-12-01T19:30:35.117Z,11.53
2018-12-01T19:33:09.495Z,15.70
2018-12-01T19:35:37.726Z,12.67
2018-12-01T19:38:07.655Z,14.00
2018-12-01T19:40:35.898Z,12.07
2018-12-01T19:43:05.272Z,12.00
2018-12-01T19:45:33.473Z,10.70
2018-12-01T19:48:01.698Z,13.13
2018-12-01T19:50:34.070Z,13.20
2018-12-01T19:53:02.306Z,12.67
2018-12-01T19:55:31.093Z,13.70
2018-12-01T19:58:00.117Z,13.98
2018-12-01T20:00:29.393Z,14.23
2018-12-01T20:03:02.889Z,14.15
2018-12-01T20:05:31.140Z,14.00
2018-12-01T20:07:59.395Z,13.95
2018-12-01T20:10:34.310Z,15.08
2018-12-01T20:13:05.958Z,13.73
2018-12-01T20:15:38.836Z,14.23
2018-12-01T20:18:13.846Z,14.43
2018-12-01T20:20:42.128Z,16.10
2018-12-01T20:23:10.330Z,12.80
2018-12-01T20:25:39.250Z,14.05
2018-12-01T20:28:07.758Z,14.70
2018-12-01T20:30:35.997Z,14.27
2018-12-01T20:33:04.300Z,13.90
2018-12-01T20:35:38.879Z,12.30
2018-12-01T20:38:12.641Z,13.20
2018-12-01T20:40:40.909Z,14.38
2018-12-01T20:43:09.202Z,13.28
2018-12-01T20:45:37.443Z,13.80
2018-12-01T20:48:05.616Z,13.15
2018-12-01T20:50:33.838Z,15.20
2018-12-01T20:53:05.178Z,12.78
2018-12-01T20:55:33.395Z,13.30
2018-12-01T20:58:02.765Z,13.13
2018-12-01T21:00:30.994Z,14.78
2018-12-01T21:02:59.385Z,13.00
2018-12-01T21:05:27.687Z,13.43
2018-12-01T21:08:02.076Z,13.57
2018-12-01T21:10:30.423Z,13.77
2018-12-01T21:13:00.022Z,13.77
2018-12-01T21:15:28.236Z,14.80
2018-12-01T21:17:56.879Z,15.40
2018-12-01T21:20:26.405Z,15.10
2018-12-01T21:22:54.561Z,16.47
2018-12-01T21:25:25.893Z,15.33
2018-12-01T21:27:56.415Z,14.83
2018-12-01T21:30:25.865Z,15.20
2018-12-01T21:32:56.968Z,16.03
2018-12-01T21:35:25.212Z,16.43
2018-12-01T21:37:53.686Z,16.43
2018-12-01T21:40:22.767Z,17.27
2018-12-01T21:42:51.109Z,18.17
2018-12-01T21:45:19.477Z,16.50
2018-12-01T21:47:48.059Z,15.50
2018-12-01T21:50:18.305Z,15.90
2018-12-01T21:52:48.041Z,16.30
2018-12-01T21:55:16.466Z,17.45
2018-12-01T21:57:46.055Z,17.77
2018-12-01T22:00:30.918Z,17.87
2018-12-01T22:03:03.822Z,18.10
2018-12-01T22:05:38.263Z,17.07
2018-12-01T22:08:07.877Z,16.57
2018-12-01T22:10:36.233Z,18.10
2018-12-01T22:13:04.514Z,17.70
2018-12-01T22:15:33.094Z,17.27
2018-12-01T22:18:01.271Z,16.47
2018-12-01T22:20:29.491Z,16.50
2018-12-01T22:22:58.009Z,16.67
2018-12-01T22:25:26.226Z,15.43
2018-12-01T22:27:54.418Z,15.78
2018-12-01T22:30:23.463Z,14.77
2018-12-01T22:37:44.334Z,15.10
2018-12-01T22:40:19.729Z,15.20
2018-12-01T22:42:48.794Z,14.90
2018-12-01T22:45:17.892Z,15.35
2018-12-01T22:47:46.118Z,14.60
2018-12-01T22:50:17.722Z,16.23
2018-12-01T22:52:46.150Z,15.50
2018-12-01T22:55:23.414Z,15.55
2018-12-01T22:57:52.992Z,14.33
2018-12-01T23:00:22.817Z,15.50
2018-12-01T23:02:51.046Z,15.87
2018-12-01T23:05:19.633Z,14.73
2018-12-01T23:07:47.833Z,14.40
2018-12-01T23:10:16.795Z,15.27
2018-12-01T23:12:46.142Z,15.72
2018-12-01T23:15:15.818Z,16.05
2018-12-01T23:17:45.919Z,14.90
2018-12-01T23:20:16.255Z,15.30
2018-12-01T23:22:44.987Z,16.30
2018-12-01T23:25:13.198Z,14.18
2018-12-01T23:27:41.369Z,17.03
2018-12-01T23:30:20.118Z,14.55
2018-12-01T23:32:49.874Z,14.13
2018-12-01T23:35:18.082Z,13.30
2018-12-01T23:37:46.582Z,13.93
2018-12-01T23:40:14.796Z,14.50
2018-12-01T23:42:43.337Z,15.15
2018-12-01T23:45:13.853Z,13.70
2018-12-01T23:47:42.337Z,14.47
2018-12-01T23:50:17.579Z,13.57
2018-12-01T23:52:46.777Z,12.87
2018-12-01T23:55:15.158Z,11.73
2018-12-01T23:57:43.617Z,12.28
